createdAt,value
2023-03-28T00:01:45.536Z,1.52
2023-03-28T00:04:49.987Z,1.47
2023-03-28T00:07:53.917Z,1.37
2023-03-28T00:11:07.643Z,1.30
2023-03-28T00:14:14.358Z,1.29
2023-03-28T00:17:18.124Z,1.25
2023-03-28T00:20:23.889Z,1.14
2023-03-28T00:23:29.110Z,1.37
2023-03-28T00:26:35.652Z,1.34
2023-03-28T00:29:39.472Z,1.35
2023-03-28T00:32:42.513Z,1.22
2023-03-28T00:35:45.953Z,1.33
2023-03-28T00:38:50.256Z,1.20
2023-03-28T00:41:55.623Z,1.11
2023-03-28T00:44:59.236Z,0.97
2023-03-28T00:48:15.485Z,0.72
2023-03-28T00:51:24.453Z,0.91
2023-03-28T00:54:33.231Z,0.91
2023-03-28T00:57:38.371Z,0.93
2023-03-28T01:00:42.294Z,0.68
2023-03-28T01:03:52.367Z,0.48
2023-03-28T01:06:59.134Z,0.53
2023-03-28T01:10:05.288Z,0.57
2023-03-28T01:13:12.782Z,0.55
2023-03-28T01:16:17.755Z,0.65
2023-03-28T01:19:32.966Z,0.58
2023-03-28T01:23:33.687Z,0.65
2023-03-28T01:26:44.727Z,0.55
2023-03-28T01:30:12.436Z,0.39
2023-03-28T01:33:25.558Z,0.50
2023-03-28T01:36:41.186Z,0.52
2023-03-28T01:40:11.489Z,0.68
2023-03-28T01:43:36.612Z,0.62
2023-03-28T01:47:13.156Z,0.45
2023-03-28T01:50:18.395Z,0.54
2023-03-28T01:53:32.048Z,0.55
2023-03-28T01:57:13.639Z,0.57
2023-03-28T02:00:31.174Z,0.26
2023-03-28T02:03:48.945Z,0.27
2023-03-28T02:06:56.434Z,0.32
2023-03-28T02:10:04.075Z,0.33
2023-03-28T02:13:14.734Z,0.47
2023-03-28T02:16:23.214Z,0.61
2023-03-28T02:19:33.946Z,0.54
2023-03-28T02:23:11.757Z,0.59
2023-03-28T02:26:18.564Z,0.59
2023-03-28T02:29:23.100Z,0.59
2023-03-28T02:32:27.234Z,0.61
2023-03-28T02:35:47.354Z,0.65
2023-03-28T02:38:55.851Z,0.58
2023-03-28T02:42:33.212Z,0.66
2023-03-28T02:46:18.408Z,0.56
2023-03-28T02:49:49.917Z,0.45
2023-03-28T02:53:22.425Z,0.52
2023-03-28T02:56:39.585Z,0.53
2023-03-28T03:00:01.384Z,0.58
2023-03-28T03:03:10.743Z,0.56
2023-03-28T03:06:14.738Z,0.65
2023-03-28T03:09:18.489Z,0.63
2023-03-28T03:12:23.415Z,0.65
2023-03-28T03:15:31.652Z,0.73
2023-03-28T03:18:35.167Z,0.74
2023-03-28T03:21:39.175Z,0.84
2023-03-28T03:24:44.105Z,0.89
2023-03-28T03:27:47.175Z,0.84
2023-03-28T03:30:52.640Z,0.90
2023-03-28T03:33:56.362Z,0.81
2023-03-28T03:37:00.559Z,0.67
2023-03-28T03:40:06.488Z,0.72
2023-03-28T03:43:13.596Z,0.61
2023-03-28T03:46:17.199Z,0.71
2023-03-28T03:49:20.788Z,0.63
2023-03-28T03:52:24.620Z,0.64
2023-03-28T03:55:28.137Z,0.57
2023-03-28T03:58:31.469Z,0.41
2023-03-28T04:01:40.141Z,0.41
2023-03-28T04:04:45.792Z,0.48
2023-03-28T04:07:49.644Z,0.49
2023-03-28T04:10:54.662Z,0.42
2023-03-28T04:13:57.864Z,0.51
2023-03-28T04:17:02.126Z,0.42
2023-03-28T04:20:14.077Z,0.40
2023-03-28T04:23:20.539Z,0.57
2023-03-28T04:26:27.093Z,0.57
2023-03-28T04:29:30.920Z,0.43
2023-03-28T04:32:37.911Z,0.50
2023-03-28T04:35:41.479Z,0.42
2023-03-28T04:38:48.073Z,0.49
2023-03-28T04:41:55.711Z,0.38
2023-03-28T04:44:59.722Z,0.36
2023-03-28T04:48:03.416Z,0.47
2023-03-28T04:51:07.238Z,0.38
2023-03-28T04:54:13.431Z,0.37
2023-03-28T04:57:22.318Z,0.41
2023-03-28T05:00:28.310Z,0.56
2023-03-28T05:03:32.763Z,0.66
2023-03-28T05:06:36.486Z,0.66
2023-03-28T05:09:40.107Z,0.30
2023-03-28T05:12:43.777Z,0.78
2023-03-28T05:15:48.514Z,0.74
2023-03-28T05:18:58.997Z,0.90
2023-03-28T05:22:13.758Z,1.01
2023-03-28T05:25:17.787Z,1.08
2023-03-28T05:28:21.442Z,1.05
2023-03-28T05:31:26.206Z,1.07
2023-03-28T05:34:38.472Z,1.10
2023-03-28T05:37:44.132Z,1.15
2023-03-28T05:40:49.701Z,1.26
2023-03-28T05:43:53.592Z,1.33
2023-03-28T05:46:57.947Z,1.39
2023-03-28T05:50:02.094Z,1.41
2023-03-28T05:53:06.698Z,1.36
2023-03-28T05:56:10.787Z,1.54
2023-03-28T05:59:14.836Z,1.53
2023-03-28T06:02:20.817Z,1.61
2023-03-28T06:05:25.216Z,1.79
2023-03-28T06:08:32.527Z,1.84
2023-03-28T06:11:36.880Z,1.93
2023-03-28T06:14:40.411Z,2.21
2023-03-28T06:17:44.782Z,2.41
2023-03-28T06:20:48.267Z,2.48
2023-03-28T06:23:51.965Z,2.75
2023-03-28T06:26:55.426Z,2.83
2023-03-28T06:30:04.734Z,3.10
2023-03-28T06:33:08.996Z,3.16
2023-03-28T06:36:12.733Z,3.03
2023-03-28T06:39:16.242Z,3.19
2023-03-28T06:42:21.269Z,3.31
2023-03-28T06:45:25.551Z,3.38
2023-03-28T06:48:33.573Z,3.63
2023-03-28T06:51:39.097Z,3.70
2023-03-28T06:54:42.582Z,4.09
2023-03-28T06:57:46.053Z,4.23
2023-03-28T07:00:52.604Z,4.01
2023-03-28T07:03:59.765Z,4.41
2023-03-28T07:07:04.061Z,4.48
2023-03-28T07:10:09.199Z,4.42
2023-03-28T07:13:13.908Z,4.72
2023-03-28T07:16:19.889Z,5.03
2023-03-28T07:19:25.604Z,4.63
2023-03-28T07:22:29.128Z,4.76
2023-03-28T07:25:32.747Z,4.99
2023-03-28T07:28:36.736Z,5.41
2023-03-28T07:31:40.572Z,5.00
2023-03-28T07:34:44.064Z,5.15
2023-03-28T07:37:48.838Z,5.27
2023-03-28T07:40:52.565Z,5.15
2023-03-28T07:43:56.970Z,5.15
2023-03-28T07:47:01.911Z,5.22
2023-03-28T07:50:05.988Z,5.58
2023-03-28T07:53:09.351Z,5.18
2023-03-28T07:56:13.318Z,4.41
2023-03-28T07:59:20.229Z,5.54
2023-03-28T08:02:24.804Z,5.69
2023-03-28T08:05:28.934Z,5.21
2023-03-28T08:08:32.850Z,5.57
2023-03-28T08:11:38.741Z,6.29
2023-03-28T08:14:41.844Z,5.69
2023-03-28T08:17:45.881Z,4.89
2023-03-28T08:20:50.626Z,4.40
2023-03-28T08:23:54.175Z,4.52
2023-03-28T08:26:58.348Z,5.30
2023-03-28T08:30:01.873Z,5.65
2023-03-28T08:33:07.450Z,5.73
2023-03-28T08:36:15.585Z,5.86
2023-03-28T08:39:19.253Z,6.00
2023-03-28T08:42:51.370Z,6.11
2023-03-28T08:45:56.992Z,5.90
2023-03-28T08:49:06.621Z,5.90
2023-03-28T08:52:14.301Z,6.20
2023-03-28T08:55:24.673Z,6.34
2023-03-28T08:58:35.202Z,6.33
2023-03-28T09:01:39.585Z,6.68
2023-03-28T09:04:42.909Z,6.82
2023-03-28T09:08:00.497Z,6.39
2023-03-28T09:11:26.236Z,6.46
2023-03-28T09:14:42.970Z,6.95
2023-03-28T09:18:07.423Z,7.07
2023-03-28T09:21:24.484Z,5.96
2023-03-28T09:25:03.212Z,6.32
2023-03-28T09:28:31.138Z,7.13
2023-03-28T09:31:45.997Z,6.55
2023-03-28T09:34:51.495Z,5.58
2023-03-28T09:38:01.560Z,6.09
2023-03-28T09:41:15.938Z,6.68
2023-03-28T09:44:34.581Z,7.03
2023-03-28T09:47:49.015Z,5.91
2023-03-28T09:50:52.973Z,6.19
2023-03-28T09:53:57.944Z,6.58
2023-03-28T09:57:04.030Z,6.91
2023-03-28T10:00:21.181Z,6.61
2023-03-28T10:03:33.050Z,6.41
2023-03-28T10:06:41.168Z,6.15
2023-03-28T10:09:55.181Z,6.48
2023-03-28T10:13:03.813Z,6.95
2023-03-28T10:16:10.628Z,7.72
2023-03-28T10:19:33.715Z,7.38
2023-03-28T10:22:40.221Z,7.32
2023-03-28T10:25:47.365Z,7.32
2023-03-28T10:28:57.719Z,7.37
2023-03-28T10:32:03.422Z,7.38
2023-03-28T10:35:09.982Z,8.08
2023-03-28T10:38:16.767Z,7.95
2023-03-28T10:41:28.552Z,7.79
2023-03-28T10:44:40.757Z,7.80
2023-03-28T10:47:44.715Z,8.30
2023-03-28T10:50:55.036Z,8.82
2023-03-28T10:54:40.053Z,7.53
2023-03-28T10:58:20.663Z,7.76
2023-03-28T11:01:33.405Z,7.91
2023-03-28T11:04:55.111Z,7.81
2023-03-28T11:08:16.617Z,8.39
2023-03-28T11:11:39.200Z,7.79
2023-03-28T11:15:14.617Z,8.65
2023-03-28T11:18:32.165Z,8.72
2023-03-28T11:21:59.158Z,8.59
2023-03-28T11:25:31.719Z,8.27
2023-03-28T11:29:01.601Z,8.64
2023-03-28T11:32:30.634Z,8.75
2023-03-28T11:35:41.557Z,8.49
2023-03-28T11:38:57.442Z,9.02
2023-03-28T11:42:06.488Z,9.14
2023-03-28T11:45:42.019Z,9.35
2023-03-28T11:49:10.002Z,8.52
2023-03-28T11:52:16.781Z,7.34
2023-03-28T11:55:26.994Z,8.79
2023-03-28T11:58:34.415Z,8.68
2023-03-28T12:01:43.992Z,8.07
2023-03-28T12:05:06.526Z,8.64
2023-03-28T12:08:26.002Z,8.53
2023-03-28T12:11:56.541Z,8.58
2023-03-28T12:15:06.038Z,9.29
2023-03-28T12:18:48.364Z,8.83
2023-03-28T12:21:58.921Z,8.62
2023-03-28T12:25:29.532Z,8.00
2023-03-28T12:28:43.762Z,8.38
2023-03-28T12:32:15.636Z,9.28
2023-03-28T12:35:43.873Z,9.45
2023-03-28T12:39:25.852Z,9.25
2023-03-28T12:42:30.058Z,9.81
2023-03-28T12:45:41.349Z,9.47
2023-03-28T12:48:57.131Z,9.46
2023-03-28T12:52:04.263Z,8.72
2023-03-28T12:55:27.538Z,9.43
2023-03-28T12:58:36.190Z,9.42
2023-03-28T13:01:49.284Z,10.13
2023-03-28T13:05:28.075Z,10.24
2023-03-28T13:08:37.155Z,10.24
2023-03-28T13:11:55.715Z,9.07
2023-03-28T13:15:24.145Z,8.29
2023-03-28T13:18:31.800Z,8.93
2023-03-28T13:22:10.596Z,9.43
2023-03-28T13:25:22.908Z,9.99
2023-03-28T13:28:44.001Z,9.44
2023-03-28T13:31:48.303Z,9.61
2023-03-28T13:35:00.118Z,9.03
2023-03-28T13:38:25.232Z,8.62
2023-03-28T13:41:46.591Z,9.06
2023-03-28T13:44:53.162Z,8.97
2023-03-28T13:48:09.969Z,8.97
2023-03-28T13:51:22.493Z,9.05
2023-03-28T13:54:30.184Z,8.69
2023-03-28T13:57:33.666Z,8.42
2023-03-28T14:00:37.143Z,7.97
2023-03-28T14:03:43.191Z,7.93
2023-03-28T14:06:48.720Z,8.07
2023-03-28T14:09:53.770Z,8.24
2023-03-28T14:13:08.383Z,8.03
2023-03-28T14:16:11.889Z,7.99
2023-03-28T14:19:21.957Z,8.31
2023-03-28T14:22:29.387Z,8.17
2023-03-28T14:25:33.055Z,7.72
2023-03-28T14:28:41.239Z,8.07
2023-03-28T14:31:47.094Z,8.15
2023-03-28T14:34:50.717Z,7.63
2023-03-28T14:37:59.004Z,7.62
2023-03-28T14:41:15.417Z,7.52
2023-03-28T14:44:18.876Z,7.23
2023-03-28T14:47:28.408Z,8.03
2023-03-28T14:50:36.488Z,7.52
2023-03-28T14:53:46.663Z,7.56
2023-03-28T14:56:49.795Z,7.31
2023-03-28T14:59:57.201Z,6.87
2023-03-28T15:03:08.067Z,6.87
2023-03-28T15:06:32.633Z,6.97
2023-03-28T15:10:07.152Z,5.95
2023-03-28T15:13:37.286Z,5.82
2023-03-28T15:17:01.118Z,5.74
2023-03-28T15:20:05.501Z,5.46
2023-03-28T15:23:16.403Z,5.35
2023-03-28T15:26:26.427Z,5.17
2023-03-28T15:29:35.444Z,5.38
2023-03-28T15:32:39.433Z,5.25
2023-03-28T15:35:46.314Z,5.47
2023-03-28T15:38:52.595Z,5.40
2023-03-28T15:42:22.305Z,5.21
2023-03-28T15:45:40.890Z,5.29
2023-03-28T15:48:44.475Z,5.46
2023-03-28T15:52:01.747Z,5.49
2023-03-28T15:55:06.462Z,5.36
2023-03-28T15:58:21.911Z,5.45
2023-03-28T16:01:34.232Z,4.87
2023-03-28T16:04:37.640Z,4.14
2023-03-28T16:07:50.780Z,3.59
2023-03-28T16:10:54.468Z,3.35
2023-03-28T16:14:01.608Z,3.17
2023-03-28T16:17:08.130Z,3.18
2023-03-28T16:20:19.061Z,3.14
2023-03-28T16:23:22.438Z,3.00
2023-03-28T16:26:26.772Z,2.86
2023-03-28T16:29:32.028Z,2.75
2023-03-28T16:32:35.520Z,2.70
2023-03-28T16:35:39.319Z,2.48
2023-03-28T16:38:42.524Z,2.52
2023-03-28T16:41:46.022Z,2.46
2023-03-28T16:44:49.110Z,2.49
2023-03-28T16:47:52.997Z,2.60
2023-03-28T16:50:58.862Z,2.64
2023-03-28T16:54:03.296Z,2.62
2023-03-28T16:57:06.640Z,2.64
2023-03-28T17:00:14.157Z,2.64
2023-03-28T17:03:18.254Z,2.71
2023-03-28T17:06:22.902Z,2.67
2023-03-28T17:09:26.571Z,2.66
2023-03-28T17:12:31.862Z,2.50
2023-03-28T17:15:37.008Z,2.44
2023-03-28T17:18:41.064Z,2.41
2023-03-28T17:21:45.719Z,2.56
2023-03-28T17:24:50.084Z,2.52
2023-03-28T17:27:53.812Z,2.59
2023-03-28T17:30:59.581Z,2.59
2023-03-28T17:34:04.578Z,2.68
2023-03-28T17:37:09.281Z,2.70
2023-03-28T17:40:17.179Z,2.61
2023-03-28T17:43:22.195Z,2.66
2023-03-28T17:46:27.656Z,2.49
2023-03-28T17:49:35.259Z,2.26
2023-03-28T17:52:39.668Z,2.13
2023-03-28T17:55:44.684Z,1.98
2023-03-28T17:58:49.535Z,2.17
2023-03-28T18:01:55.323Z,2.08
2023-03-28T18:05:01.410Z,1.95
2023-03-28T18:08:06.389Z,1.88
2023-03-28T18:11:15.636Z,1.77
2023-03-28T18:14:20.105Z,1.57
2023-03-28T18:17:25.689Z,1.54
2023-03-28T18:20:31.826Z,1.67
2023-03-28T18:23:37.512Z,1.83
2023-03-28T18:26:43.802Z,1.85
2023-03-28T18:29:50.206Z,1.66
2023-03-28T18:32:55.005Z,1.64
2023-03-28T18:35:59.917Z,1.58
2023-03-28T18:39:06.729Z,1.58
2023-03-28T18:42:20.204Z,1.82
2023-03-28T18:45:25.219Z,1.75
2023-03-28T18:48:34.229Z,1.69
2023-03-28T18:51:40.201Z,1.58
2023-03-28T18:54:48.755Z,1.62
2023-03-28T18:57:54.180Z,1.68
2023-03-28T19:01:03.754Z,1.64
2023-03-28T19:04:08.721Z,1.74
2023-03-28T19:07:18.277Z,1.69
2023-03-28T19:10:22.960Z,1.70
2023-03-28T19:13:29.650Z,1.78
2023-03-28T19:16:36.027Z,1.83
2023-03-28T19:19:42.035Z,1.73
2023-03-28T19:22:46.409Z,1.70
2023-03-28T19:25:51.145Z,1.42
2023-03-28T19:28:55.180Z,1.49
2023-03-28T19:31:59.881Z,1.69
2023-03-28T19:35:04.015Z,1.62
2023-03-28T19:38:09.469Z,1.76
2023-03-28T19:41:23.119Z,1.68
2023-03-28T19:44:28.620Z,1.39
2023-03-28T19:47:33.121Z,1.52
2023-03-28T19:50:38.517Z,1.46
2023-03-28T19:53:43.632Z,1.44
2023-03-28T19:56:49.899Z,1.59
2023-03-28T19:59:53.329Z,1.59
2023-03-28T20:02:58.413Z,1.52
2023-03-28T20:06:05.722Z,1.61
2023-03-28T20:09:12.526Z,1.52
2023-03-28T20:12:18.586Z,1.68
2023-03-28T20:15:23.920Z,1.54
2023-03-28T20:18:29.193Z,1.63
2023-03-28T20:21:34.276Z,1.70
2023-03-28T20:24:39.921Z,1.62
2023-03-28T20:27:44.378Z,1.89
2023-03-28T20:30:49.187Z,1.72
2023-03-28T20:33:55.320Z,1.85
2023-03-28T20:37:00.218Z,1.74
2023-03-28T20:40:14.604Z,1.70
2023-03-28T20:43:24.241Z,1.58
2023-03-28T20:46:27.466Z,1.48
2023-03-28T20:49:32.585Z,1.61
2023-03-28T20:52:38.198Z,1.56
2023-03-28T20:55:43.550Z,1.36
2023-03-28T20:58:46.902Z,1.44
2023-03-28T21:01:51.770Z,1.49
2023-03-28T21:04:55.337Z,1.43
2023-03-28T21:07:59.339Z,1.45
2023-03-28T21:11:02.840Z,1.41
2023-03-28T21:14:08.760Z,1.18
2023-03-28T21:17:21.937Z,1.25
2023-03-28T21:20:25.794Z,1.39
2023-03-28T21:23:29.203Z,1.28
2023-03-28T21:26:32.838Z,1.17
2023-03-28T21:29:35.883Z,1.18
2023-03-28T21:32:39.815Z,1.18
2023-03-28T21:35:42.930Z,1.28
2023-03-28T21:38:47.731Z,1.35
2023-03-28T21:41:51.263Z,1.29
2023-03-28T21:44:55.052Z,1.20
2023-03-28T21:47:58.507Z,1.06
2023-03-28T21:51:03.298Z,1.00
2023-03-28T21:54:06.672Z,1.14
2023-03-28T21:57:10.595Z,1.32
2023-03-28T22:00:17.508Z,1.10
2023-03-28T22:03:21.186Z,0.97
2023-03-28T22:06:24.656Z,1.01
2023-03-28T22:09:28.309Z,0.84
2023-03-28T22:12:32.656Z,0.70
2023-03-28T22:15:36.503Z,0.47
2023-03-28T22:18:41.744Z,0.39
2023-03-28T22:21:46.578Z,0.10
2023-03-28T22:24:49.795Z,-0.18
2023-03-28T22:27:54.839Z,0.18
2023-03-28T22:30:58.152Z,0.25
2023-03-28T22:34:01.775Z,0.08
2023-03-28T22:37:04.888Z,-0.23
2023-03-28T22:40:09.296Z,-0.68
2023-03-28T22:43:12.587Z,-0.53
2023-03-28T22:46:16.603Z,-0.81
2023-03-28T22:49:22.319Z,-0.81
2023-03-28T22:52:31.793Z,-0.91
2023-03-28T22:55:35.144Z,-1.10
2023-03-28T22:58:38.574Z,-1.27
2023-03-28T23:01:45.645Z,-1.47
2023-03-28T23:04:50.850Z,-1.68
2023-03-28T23:07:55.077Z,-1.73
2023-03-28T23:10:58.659Z,-1.93
2023-03-28T23:14:03.580Z,-2.03
2023-03-28T23:17:06.997Z,-2.07
2023-03-28T23:20:14.948Z,-2.08
2023-03-28T23:23:19.009Z,-1.88
2023-03-28T23:26:22.613Z,-1.71
2023-03-28T23:29:26.094Z,-1.58
2023-03-28T23:32:29.611Z,-1.49
2023-03-28T23:35:33.286Z,-1.39
2023-03-28T23:38:36.965Z,-1.40
2023-03-28T23:41:42.249Z,-1.40
2023-03-28T23:44:45.821Z,-1.58
2023-03-28T23:47:49.750Z,-1.57
2023-03-28T23:50:52.865Z,-1.49
2023-03-28T23:53:56.591Z,-1.66
2023-03-28T23:56:59.949Z,-1.69
